Impacts METAR Board
IDs:

KPHX - Phoenix/Sky Harbor, AZ, US

Updated at: 1600 UTC 22 Sep 2019
Potential Impact None Slight Moderate High
Time 22/04Z 22/05Z 22/06Z 22/07Z 22/08Z 22/09Z 22/10Z 22/11Z 22/12Z 22/13Z 22/14Z 22/15Z 22/16Z
Temp88 84 82 80 79 76 75 75 74 72 73 76 82
Dewpt28 31 33 32 32 31 30 30 30 35 34 31 30
Altim29.83 29.85 29.86 29.86 29.86 29.86 29.86 29.87 29.88 29.90 29.92 29.95 29.96
VIS10 10 10 10 10 10 10 10 10 10 10 10 10
CIG-- -- -- -- -- -- -- -- -- -- -- -- --
CoverCLRCLRCLRCLRCLRCLRFEWFEWFEWFEWFEWFEWFEW
FltCatVFRVFRVFRVFRVFRVFRVFRVFRVFRVFRVFRVFRVFR
WX--------------------------
WDir3100900100901901309011011090100
WSpd5 0 5 0 4 4 3 3 6 6 4 6 9
WGst-- -- -- -- -- -- -- -- -- -- -- -- --
Raw hourly METARs
KPHX 220351Z 31005KT 10SM CLR 31/M02 A2983 RMK AO2 SLP083 T03111022 $
KPHX 220451Z 00000KT 10SM CLR 29/M01 A2985 RMK AO2 SLP088 T02891006 $
KPHX 220551Z 09005KT 10SM CLR 28/01 A2986 RMK AO2 SLP091 T02780006 10344 20278 51013 $
KPHX 220651Z 00000KT 10SM CLR 27/00 A2986 RMK AO2 SLP092 T02670000 403560211 $
KPHX 220751Z 10004KT 10SM CLR 26/00 A2986 RMK AO2 SLP092 T02610000 $
KPHX 220851Z 09004KT 10SM CLR 24/M01 A2986 RMK AO2 SLP094 T02441006 53003 $
KPHX 220951Z 19003KT 10SM FEW120 24/M01 A2986 RMK AO2 SLP094 T02391011 $
KPHX 221051Z 13003KT 10SM FEW120 24/M01 A2987 RMK AO2 SLP096 T02391011 $
KPHX 221151Z 09006KT 10SM FEW120 23/M01 A2988 RMK AO2 SLP101 T02331011 10283 20228 53007 $
KPHX 221251Z 11006KT 10SM FEW120 22/02 A2990 RMK AO2 SLP109 T02220017 $
KPHX 221351Z 11004KT 10SM FEW120 FEW250 23/01 A2992 RMK AO2 SLP115 T02280011 $
KPHX 221451Z 09006KT 10SM FEW120 24/M01 A2995 RMK AO2 SLP122 T02441006 53020 $
KPHX 221551Z 10009KT 10SM FEW120 FEW250 28/M01 A2996 RMK AO2 SLP127 T02781011 $



Page loaded:  16:24 UTC  |   09:24 AM Pacific  |   10:24 AM Mountain  |   11:24 AM Central  |   12:24 PM Eastern

 

ADVISORIES

FORECASTS

FORECASTS

OBSERVATIONS

USER TOOLS

ABOUT US